Time;durP1;ratioP1;P1;durP2;ratioP2;P2;SDS_P1;SDS_P2;PMS_P1;PMS_P2;Temp;Humidity;BMP_temperature;BMP_pressure;BME280_temperature;BME280_humidity;BME280_pressure;Samples;Min_cycle;Max_cycle;Signal;HPM_P1;HPM_P2
2021/07/14 00:01:36;;;;;;;74.28;40.75;;;19.60;99.90;;;;;;5113583;28;20059;-71
2021/07/14 00:04:02;;;;;;;70.53;39.65;;;19.60;99.90;;;;;;5113992;28;20085;-71
2021/07/14 00:06:28;;;;;;;73.45;39.97;;;19.60;99.90;;;;;;5114229;28;20042;-70
2021/07/14 00:08:54;;;;;;;64.72;37.95;;;19.70;99.90;;;;;;5114003;28;20040;-71
2021/07/14 00:11:19;;;;;;;69.43;38.42;;;19.70;99.90;;;;;;5113753;28;20452;-71
2021/07/14 00:14:02;;;;;;;81.18;43.05;;;19.70;99.90;;;;;;5113612;28;20035;-71
2021/07/14 00:22:10;;;;;;;86.95;45.55;;;19.60;99.90;;;;;;5113614;28;20031;-71
2021/07/14 00:24:37;;;;;;;98.80;47.03;;;19.50;99.90;;;;;;5117352;28;20086;-71
2021/07/14 00:27:06;;;;;;;92.20;42.80;;;19.50;99.90;;;;;;5117759;28;20031;-71
2021/07/14 00:29:36;;;;;;;77.65;39.95;;;19.50;99.90;;;;;;5115899;28;20032;-71
2021/07/14 00:32:03;;;;;;;82.15;41.10;;;19.40;99.90;;;;;;5117283;28;20075;-70
2021/07/14 00:34:29;;;;;;;85.30;40.03;;;19.40;99.90;;;;;;5117163;28;20088;-70
2021/07/14 00:36:55;;;;;;;78.20;40.83;;;19.40;99.90;;;;;;5117239;28;20434;-70
2021/07/14 00:39:20;;;;;;;77.70;39.10;;;19.40;99.90;;;;;;5116846;28;20044;-71
2021/07/14 00:41:46;;;;;;;76.65;40.13;;;19.30;99.90;;;;;;5117080;28;20078;-71
2021/07/14 00:44:12;;;;;;;70.22;37.90;;;19.40;99.90;;;;;;5116999;28;20042;-71
2021/07/14 00:46:39;;;;;;;69.90;37.85;;;19.30;99.90;;;;;;5117887;28;20044;-71
2021/07/14 00:49:06;;;;;;;70.95;37.78;;;19.30;99.90;;;;;;5116640;28;20039;-71
2021/07/14 00:51:32;;;;;;;65.13;35.17;;;19.40;99.90;;;;;;5116870;28;20415;-71
2021/07/14 00:53:58;;;;;;;69.13;37.92;;;19.40;99.90;;;;;;5117367;28;20486;-71
2021/07/14 00:56:26;;;;;;;68.35;38.97;;;19.30;99.90;;;;;;5116280;28;20036;-71
2021/07/14 00:58:54;;;;;;;66.22;35.63;;;19.40;99.90;;;;;;5116604;28;20043;-71
2021/07/14 01:01:20;;;;;;;76.60;38.40;;;19.40;99.90;;;;;;5117004;28;20054;-71
2021/07/14 01:04:10;;;;;;;69.45;37.58;;;19.30;99.90;;;;;;5116785;27;20032;-71
2021/07/14 01:06:56;;;;;;;65.78;37.58;;;19.40;99.90;;;;;;5116617;28;20035;-70
2021/07/14 01:09:46;;;;;;;62.88;36.65;;;19.30;99.90;;;;;;5116448;28;20040;-71
2021/07/14 01:12:33;;;;;;;74.28;39.42;;;19.40;99.90;;;;;;5116352;28;20047;-71
2021/07/14 01:15:17;;;;;;;78.10;42.55;;;19.30;99.90;;;;;;5104736;28;20063;-70
2021/07/14 01:17:55;;;;;;;83.57;44.83;;;19.30;99.90;;;;;;5116452;28;20497;-71
2021/07/14 01:20:58;;;;;;;83.68;44.78;;;19.30;99.90;;;;;;5116037;28;20093;-71
2021/07/14 01:23:30;;;;;;;86.22;45.15;;;19.30;99.90;;;;;;5116253;28;20039;-71
2021/07/14 01:26:13;;;;;;;99.22;46.90;;;19.30;99.90;;;;;;5116201;28;20483;-70
2021/07/14 01:28:42;;;;;;;98.15;48.05;;;19.20;99.90;;;;;;5115977;28;20036;-71
2021/07/14 01:31:12;;;;;;;96.45;46.15;;;19.20;99.90;;;;;;5116168;28;20129;-71
2021/07/14 01:33:41;;;;;;;89.95;42.15;;;19.20;99.90;;;;;;5116268;28;20040;-71
2021/07/14 01:36:15;;;;;;;95.15;43.90;;;19.10;99.90;;;;;;5115447;28;20053;-71
2021/07/14 01:38:44;;;;;;;82.18;42.08;;;19.10;99.90;;;;;;5115987;28;20407;-71
2021/07/14 01:41:13;;;;;;;90.55;43.22;;;19.10;99.90;;;;;;5115909;28;20113;-71
2021/07/14 01:43:43;;;;;;;87.07;41.58;;;19.10;99.90;;;;;;5116186;28;20032;-70
2021/07/14 01:46:12;;;;;;;90.65;39.75;;;19.10;99.90;;;;;;5116542;28;20092;-70
2021/07/14 01:48:41;;;;;;;82.43;39.60;;;19.10;99.90;;;;;;5115362;28;20096;-70
2021/07/14 01:51:07;;;;;;;91.53;43.42;;;19.10;99.90;;;;;;5115614;28;20406;-70
2021/07/14 01:53:35;;;;;;;92.78;43.28;;;19.10;99.90;;;;;;5115758;28;20046;-70
2021/07/14 01:56:09;;;;;;;83.65;40.38;;;19.00;99.90;;;;;;5115784;28;20426;-71
2021/07/14 01:58:46;;;;;;;98.63;45.45;;;19.10;99.90;;;;;;5116007;28;20137;-71
2021/07/14 02:01:17;;;;;;;97.35;43.90;;;19.10;99.90;;;;;;5115875;28;20039;-71
2021/07/14 02:04:30;;;;;;;93.28;44.17;;;19.10;99.90;;;;;;5116301;28;20147;-70
2021/07/14 02:06:48;;;;;;;95.53;41.65;;;19.00;99.90;;;;;;5115981;28;20043;-70
2021/07/14 02:09:15;;;;;;;108.28;45.60;;;19.00;99.90;;;;;;5115155;28;20039;-70
2021/07/14 02:11:43;;;;;;;91.18;42.58;;;19.00;99.90;;;;;;5115929;28;20043;-71
2021/07/14 02:14:12;;;;;;;98.88;44.53;;;19.00;99.90;;;;;;5115742;28;20040;-70
2021/07/14 02:16:38;;;;;;;105.97;45.83;;;19.00;99.90;;;;;;5115596;28;20043;-71
2021/07/14 02:19:06;;;;;;;113.85;46.42;;;19.00;99.90;;;;;;5115058;28;20043;-71
2021/07/14 02:21:34;;;;;;;106.20;45.63;;;19.10;99.90;;;;;;5115222;28;20172;-70
2021/07/14 02:23:59;;;;;;;94.22;43.10;;;19.00;99.90;;;;;;5115356;28;20110;-70
2021/07/14 02:26:27;;;;;;;96.85;43.30;;;19.10;99.90;;;;;;5115321;28;20123;-71
2021/07/14 02:28:52;;;;;;;103.13;43.38;;;19.10;99.90;;;;;;5114853;27;20044;-71
2021/07/14 02:31:18;;;;;;;94.75;42.22;;;19.10;99.90;;;;;;5115151;28;20050;-71
2021/07/14 02:33:44;;;;;;;108.47;43.25;;;19.20;99.90;;;;;;5114888;28;20036;-71
2021/07/14 02:36:14;;;;;;;96.97;43.03;;;19.10;99.90;;;;;;5114968;28;20096;-71
2021/07/14 02:38:43;;;;;;;95.53;43.60;;;19.10;99.90;;;;;;5114747;28;20480;-72
2021/07/14 02:41:21;;;;;;;101.05;43.33;;;19.10;99.90;;;;;;5114926;28;20032;-71
2021/07/14 02:43:57;;;;;;;100.10;44.20;;;19.10;99.90;;;;;;5114930;28;20051;-71
2021/07/14 02:46:24;;;;;;;94.93;44.53;;;19.10;99.90;;;;;;5114654;28;20039;-71
2021/07/14 02:48:55;;;;;;;106.13;46.90;;;19.10;99.90;;;;;;5114659;27;20031;-70
2021/07/14 02:51:28;;;;;;;102.32;45.88;;;19.00;99.90;;;;;;5114913;28;20138;-70
2021/07/14 02:53:58;;;;;;;101.65;44.65;;;19.10;99.90;;;;;;5114827;28;20456;-71
2021/07/14 02:56:28;;;;;;;94.03;44.15;;;19.10;99.90;;;;;;5114782;28;20392;-71
2021/07/14 02:58:57;;;;;;;106.32;44.88;;;19.10;99.90;;;;;;5114396;28;20040;-71
2021/07/14 03:01:24;;;;;;;113.50;47.35;;;19.00;99.90;;;;;;5113123;28;20032;-70
2021/07/14 03:03:51;;;;;;;117.65;45.95;;;18.90;99.90;;;;;;5114546;28;20041;-70
2021/07/14 03:06:17;;;;;;;114.88;44.90;;;18.90;99.90;;;;;;5114274;28;20036;-71
2021/07/14 03:08:47;;;;;;;138.23;46.30;;;18.90;99.90;;;;;;5113997;28;20114;-71
2021/07/14 03:11:15;;;;;;;118.03;44.97;;;18.80;99.90;;;;;;5114616;28;20067;-71
2021/07/14 03:13:43;;;;;;;106.53;42.88;;;18.90;99.90;;;;;;5114433;28;20036;-70
2021/07/14 03:16:09;;;;;;;120.20;46.45;;;18.80;99.90;;;;;;5114524;28;20039;-71
2021/07/14 03:18:36;;;;;;;105.43;43.00;;;19.00;99.90;;;;;;5114063;28;20047;-71
2021/07/14 03:21:04;;;;;;;115.30;46.60;;;19.00;99.90;;;;;;5113998;28;20036;-71
2021/07/14 03:23:31;;;;;;;118.35;48.15;;;18.90;99.90;;;;;;5114363;28;20032;-71
2021/07/14 03:26:00;;;;;;;119.57;48.03;;;18.90;99.90;;;;;;5114137;28;20036;-71
2021/07/14 03:28:30;;;;;;;111.70;46.67;;;18.90;99.90;;;;;;5113953;28;20051;-71
2021/07/14 03:31:01;;;;;;;111.00;44.95;;;18.90;99.90;;;;;;5113938;28;20039;-70
2021/07/14 03:33:32;;;;;;;109.95;48.10;;;18.80;99.90;;;;;;5113937;28;20035;-71
2021/07/14 03:35:59;;;;;;;111.35;47.80;;;18.90;99.90;;;;;;5114182;28;20419;-71
2021/07/14 03:38:29;;;;;;;102.63;45.85;;;18.90;99.90;;;;;;5114140;28;20044;-70
2021/07/14 03:40:57;;;;;;;101.05;46.20;;;18.80;99.90;;;;;;5113990;28;20032;-70
2021/07/14 03:43:25;;;;;;;100.22;48.47;;;18.80;99.90;;;;;;5113692;28;20083;-70
2021/07/14 03:45:52;;;;;;;97.68;47.78;;;18.90;99.90;;;;;;5114403;28;20057;-71
2021/07/14 03:48:19;;;;;;;87.00;45.40;;;18.90;99.90;;;;;;5113847;28;20097;-70
2021/07/14 03:50:52;;;;;;;93.85;47.75;;;18.90;99.90;;;;;;5113639;28;20063;-71
2021/07/14 03:53:23;;;;;;;84.97;45.08;;;18.90;99.90;;;;;;5113668;28;20035;-71
2021/07/14 03:55:49;;;;;;;88.35;46.22;;;18.80;99.90;;;;;;5114161;28;20059;-70
2021/07/14 03:58:17;;;;;;;86.03;43.45;;;18.80;99.90;;;;;;5115242;28;20039;-70
2021/07/14 04:00:44;;;;;;;82.32;47.63;;;18.90;99.90;;;;;;5117471;28;20032;-71
2021/07/14 04:03:11;;;;;;;88.70;45.85;;;18.90;99.90;;;;;;5117991;28;20032;-71
2021/07/14 04:05:46;;;;;;;85.82;45.72;;;18.90;99.90;;;;;;5117739;28;20035;-71
2021/07/14 04:08:23;;;;;;;78.22;44.50;;;18.90;99.90;;;;;;5117710;28;20040;-70
2021/07/14 04:10:48;;;;;;;67.28;41.33;;;18.90;99.90;;;;;;5117441;28;20118;-70
2021/07/14 04:13:14;;;;;;;69.13;39.50;;;18.90;99.90;;;;;;5117862;28;20118;-70
2021/07/14 04:15:41;;;;;;;69.10;42.88;;;18.90;99.90;;;;;;5117652;28;20047;-70
2021/07/14 04:18:11;;;;;;;66.97;41.85;;;18.80;99.90;;;;;;5117525;28;20043;-70
2021/07/14 04:20:38;;;;;;;67.25;39.30;;;18.90;99.90;;;;;;5117654;28;20036;-70
2021/07/14 04:23:04;;;;;;;69.75;40.58;;;18.90;99.90;;;;;;5116682;28;20039;-70
2021/07/14 04:25:30;;;;;;;63.70;38.83;;;19.00;99.90;;;;;;5117367;28;20092;-70
2021/07/14 04:27:55;;;;;;;65.63;39.85;;;19.00;99.90;;;;;;5117401;28;20035;-71
2021/07/14 04:30:21;;;;;;;57.28;39.90;;;19.00;99.90;;;;;;5117106;28;20050;-71
2021/07/14 04:32:48;;;;;;;67.95;40.75;;;19.00;99.90;;;;;;5117554;28;20040;-71
2021/07/14 04:35:13;;;;;;;58.72;37.60;;;18.90;99.90;;;;;;5117432;28;20035;-70
2021/07/14 04:37:39;;;;;;;64.13;40.20;;;18.90;99.90;;;;;;5117313;28;20039;-70
2021/07/14 04:40:06;;;;;;;65.43;38.80;;;18.90;99.90;;;;;;5116790;28;20118;-71
2021/07/14 04:42:32;;;;;;;68.15;40.97;;;18.90;99.90;;;;;;5117247;28;20036;-70
2021/07/14 04:44:58;;;;;;;62.08;38.20;;;18.90;99.90;;;;;;5117134;28;20525;-70
2021/07/14 04:47:23;;;;;;;62.60;38.72;;;18.90;99.90;;;;;;5117089;28;20040;-70
2021/07/14 04:49:49;;;;;;;59.47;38.85;;;18.90;99.90;;;;;;5116698;27;20433;-70
2021/07/14 04:52:15;;;;;;;66.47;40.55;;;19.00;99.90;;;;;;5116745;28;20434;-70
2021/07/14 04:54:44;;;;;;;61.40;38.65;;;19.00;99.90;;;;;;5116842;28;20395;-71
2021/07/14 04:57:10;;;;;;;61.47;38.25;;;19.00;99.90;;;;;;5117233;28;20035;-70
2021/07/14 04:59:36;;;;;;;65.85;40.50;;;18.90;99.90;;;;;;5116750;28;20165;-71
2021/07/14 05:02:03;;;;;;;64.55;39.88;;;19.00;99.90;;;;;;5116675;28;20055;-70
2021/07/14 05:04:30;;;;;;;63.97;38.75;;;19.00;99.90;;;;;;5116939;28;20494;-70
2021/07/14 05:06:59;;;;;;;59.05;36.78;;;19.00;99.90;;;;;;5117102;28;20041;-70
2021/07/14 05:09:25;;;;;;;56.63;37.78;;;19.00;99.90;;;;;;5116136;28;20386;-70
2021/07/14 05:11:51;;;;;;;60.22;38.78;;;19.00;99.90;;;;;;5116413;28;20035;-71
2021/07/14 05:14:18;;;;;;;60.45;38.75;;;19.10;99.90;;;;;;5117012;28;20378;-71
2021/07/14 05:16:46;;;;;;;52.78;35.45;;;19.10;99.90;;;;;;5116622;28;20047;-71
2021/07/14 05:19:14;;;;;;;55.08;35.65;;;19.20;99.90;;;;;;5116366;28;20406;-71
2021/07/14 05:21:41;;;;;;;53.13;35.47;;;19.20;99.90;;;;;;5116304;28;20045;-71
2021/07/14 05:24:07;;;;;;;52.30;33.88;;;19.30;99.90;;;;;;5116439;27;20080;-70
2021/07/14 05:26:33;;;;;;;54.30;34.03;;;19.20;99.90;;;;;;5116537;28;20042;-70
2021/07/14 05:28:59;;;;;;;48.47;31.85;;;19.30;99.90;;;;;;5115756;28;20040;-70
2021/07/14 05:31:24;;;;;;;48.45;31.90;;;19.30;99.90;;;;;;5116267;28;20067;-71
2021/07/14 05:33:50;;;;;;;41.50;29.05;;;19.40;99.90;;;;;;5116577;28;20031;-71
2021/07/14 05:36:17;;;;;;;43.55;28.73;;;19.50;99.90;;;;;;5115993;28;20096;-71
2021/07/14 05:38:43;;;;;;;47.05;29.58;;;19.60;99.90;;;;;;5116248;28;20036;-71
2021/07/14 05:41:09;;;;;;;42.65;28.58;;;19.60;99.90;;;;;;5116307;28;20348;-71
2021/07/14 05:43:35;;;;;;;38.67;27.88;;;19.60;99.90;;;;;;5116469;28;20066;-71
2021/07/14 05:46:01;;;;;;;35.92;26.15;;;19.60;99.90;;;;;;5116157;27;20035;-70
2021/07/14 05:48:27;;;;;;;38.63;25.67;;;19.60;99.90;;;;;;5115734;28;20103;-71
2021/07/14 05:50:53;;;;;;;34.70;24.90;;;19.70;99.90;;;;;;5115811;28;20036;-71
2021/07/14 05:53:19;;;;;;;33.97;24.83;;;19.70;99.90;;;;;;5115798;28;20485;-71
2021/07/14 05:55:45;;;;;;;35.60;24.30;;;19.80;99.90;;;;;;5115725;28;20031;-71
2021/07/14 05:58:11;;;;;;;30.13;22.30;;;19.90;99.90;;;;;;5116165;28;20067;-70
2021/07/14 06:00:38;;;;;;;27.58;22.48;;;19.70;99.90;;;;;;5115145;28;20093;-70
2021/07/14 06:03:05;;;;;;;32.20;23.80;;;19.80;99.90;;;;;;5115666;28;20035;-70
2021/07/14 06:05:32;;;;;;;34.15;23.38;;;19.70;99.90;;;;;;5114688;28;20108;-70
2021/07/14 06:07:57;;;;;;;32.83;23.02;;;19.70;99.90;;;;;;5115551;28;20096;-70
2021/07/14 06:10:23;;;;;;;31.33;22.90;;;19.70;99.90;;;;;;5115106;28;20123;-70
2021/07/14 06:12:55;;;;;;;26.92;22.80;;;19.70;99.90;;;;;;5115237;28;20445;-70
2021/07/14 06:15:21;;;;;;;28.30;20.67;;;19.70;99.90;;;;;;5115543;28;20042;-70
2021/07/14 06:17:47;;;;;;;31.33;21.95;;;19.70;99.90;;;;;;5115258;27;20032;-70
2021/07/14 06:20:13;;;;;;;28.17;20.67;;;19.70;99.90;;;;;;5114735;28;20045;-70
2021/07/14 06:22:39;;;;;;;27.08;20.08;;;19.60;99.90;;;;;;5115090;28;20046;-70
2021/07/14 06:25:08;;;;;;;27.95;21.30;;;19.60;99.90;;;;;;5115214;28;20036;-70
2021/07/14 06:27:34;;;;;;;26.75;20.83;;;19.70;99.90;;;;;;5113889;28;20405;-70
2021/07/14 06:30:05;;;;;;;31.38;22.10;;;19.70;99.90;;;;;;5114567;28;20119;-70
2021/07/14 06:32:32;;;;;;;27.50;21.75;;;19.70;99.90;;;;;;5115019;28;20483;-70
2021/07/14 06:35:00;;;;;;;27.88;21.15;;;19.80;99.90;;;;;;5115165;28;20460;-70
2021/07/14 06:37:26;;;;;;;24.38;19.63;;;19.80;99.90;;;;;;5115017;28;20038;-70
2021/07/14 06:39:52;;;;;;;24.77;21.27;;;19.70;99.90;;;;;;5114783;28;20471;-70
2021/07/14 06:42:18;;;;;;;27.25;20.60;;;19.80;99.90;;;;;;5115021;28;20043;-70
2021/07/14 06:44:43;;;;;;;27.63;19.98;;;19.80;99.90;;;;;;5113668;28;20039;-70
2021/07/14 06:47:09;;;;;;;28.17;21.58;;;19.80;99.90;;;;;;5114771;28;20421;-70
2021/07/14 06:49:35;;;;;;;31.17;21.25;;;19.90;99.90;;;;;;5114334;28;20035;-70
2021/07/14 06:52:01;;;;;;;25.30;19.98;;;19.80;99.90;;;;;;5110910;28;20036;-70
2021/07/14 06:54:28;;;;;;;29.55;21.15;;;19.80;99.90;;;;;;5114585;28;20110;-70
2021/07/14 06:56:54;;;;;;;27.58;21.27;;;19.70;99.90;;;;;;5114492;28;20174;-70
2021/07/14 06:59:20;;;;;;;24.83;20.80;;;19.60;99.90;;;;;;5114377;28;20039;-70
2021/07/14 07:01:46;;;;;;;28.92;20.88;;;19.60;99.90;;;;;;5114339;28;20040;-70
2021/07/14 07:04:12;;;;;;;28.95;22.15;;;19.70;99.90;;;;;;5114610;28;20456;-70
2021/07/14 07:06:37;;;;;;;29.73;21.42;;;19.80;99.90;;;;;;5114699;28;20039;-70
2021/07/14 07:09:05;;;;;;;33.53;22.98;;;19.70;99.90;;;;;;5114273;28;20036;-70
2021/07/14 07:11:34;;;;;;;25.88;21.80;;;19.80;99.90;;;;;;5114160;28;20046;-70
2021/07/14 07:14:01;;;;;;;29.08;23.33;;;19.90;99.90;;;;;;5113845;28;20036;-70
2021/07/14 07:16:27;;;;;;;28.38;21.13;;;19.90;99.90;;;;;;5114308;28;20454;-71
2021/07/14 07:18:53;;;;;;;25.67;22.67;;;19.90;99.90;;;;;;5113802;28;20040;-71
2021/07/14 07:21:19;;;;;;;31.10;22.38;;;20.00;99.90;;;;;;5113285;28;20096;-71
2021/07/14 07:23:45;;;;;;;25.02;20.85;;;20.10;99.90;;;;;;5114014;28;20043;-70
2021/07/14 07:26:12;;;;;;;25.00;21.02;;;20.10;99.90;;;;;;5114656;28;20048;-71
2021/07/14 07:28:41;;;;;;;28.83;21.63;;;20.20;99.90;;;;;;5114149;28;20039;-70
2021/07/14 07:31:09;;;;;;;33.70;22.92;;;20.20;99.90;;;;;;5112928;28;20379;-71
2021/07/14 07:33:39;;;;;;;25.85;22.10;;;20.10;99.90;;;;;;5112968;28;20039;-72
2021/07/14 07:36:05;;;;;;;27.48;20.65;;;20.00;99.90;;;;;;5114409;28;20434;-72
2021/07/14 07:38:37;;;;;;;30.13;21.67;;;20.10;99.90;;;;;;5113999;28;20057;-72
2021/07/14 07:41:05;;;;;;;30.48;22.80;;;20.20;99.90;;;;;;5113695;28;20479;-72
2021/07/14 07:43:31;;;;;;;28.98;22.75;;;20.10;99.90;;;;;;5113870;28;20062;-72
2021/07/14 07:45:57;;;;;;;24.40;21.50;;;20.30;99.90;;;;;;5114122;28;20071;-72
2021/07/14 07:48:22;;;;;;;26.08;22.40;;;20.30;99.90;;;;;;5113608;28;20031;-73
2021/07/14 07:50:49;;;;;;;27.55;21.58;;;20.40;99.90;;;;;;5112343;28;20046;-72
2021/07/14 07:53:17;;;;;;;35.22;22.10;;;20.40;99.90;;;;;;5113874;28;20036;-72
2021/07/14 07:55:44;;;;;;;25.95;22.55;;;20.60;99.90;;;;;;5113910;28;20042;-73
2021/07/14 07:58:10;;;;;;;28.52;23.63;;;20.60;99.90;;;;;;5113760;28;20501;-71
2021/07/14 08:00:36;;;;;;;31.80;23.48;;;20.60;99.90;;;;;;5112255;28;20036;-71
2021/07/14 08:03:01;;;;;;;30.15;24.23;;;20.60;99.90;;;;;;5112650;28;20480;-71
2021/07/14 08:05:29;;;;;;;28.25;23.92;;;20.50;99.90;;;;;;5113517;28;20035;-71
2021/07/14 08:07:55;;;;;;;31.05;23.23;;;20.70;99.90;;;;;;5113462;28;20110;-71
2021/07/14 08:10:21;;;;;;;27.10;23.52;;;20.70;99.90;;;;;;5113106;28;20184;-72
2021/07/14 08:12:46;;;;;;;32.58;24.35;;;20.70;99.90;;;;;;5113534;28;20035;-71
2021/07/14 08:15:12;;;;;;;29.27;22.38;;;20.60;99.90;;;;;;5113437;28;20035;-71
2021/07/14 08:17:39;;;;;;;29.25;20.80;;;20.70;99.90;;;;;;5113448;28;20039;-71
2021/07/14 08:20:08;;;;;;;32.22;22.63;;;20.80;99.90;;;;;;5113020;28;20063;-71
2021/07/14 08:22:35;;;;;;;31.23;22.67;;;20.80;99.90;;;;;;5113342;28;20496;-72
2021/07/14 08:25:02;;;;;;;26.67;21.65;;;21.00;99.90;;;;;;5113885;28;20480;-72
2021/07/14 08:27:28;;;;;;;24.40;21.80;;;21.10;99.90;;;;;;5113557;28;20103;-72
2021/07/14 08:29:58;;;;;;;26.33;21.70;;;21.10;99.90;;;;;;5113276;28;20501;-72
2021/07/14 08:32:25;;;;;;;26.42;20.92;;;21.20;99.90;;;;;;5113373;28;20499;-72
2021/07/14 08:34:51;;;;;;;26.08;20.92;;;21.20;99.90;;;;;;5113440;28;20134;-72
2021/07/14 08:37:17;;;;;;;27.10;20.45;;;21.20;99.90;;;;;;5113318;28;20507;-72
2021/07/14 08:39:42;;;;;;;29.48;21.50;;;21.30;99.90;;;;;;5112851;28;20483;-72
2021/07/14 08:42:10;;;;;;;27.60;20.38;;;21.30;99.90;;;;;;5113350;28;20040;-73
2021/07/14 08:44:36;;;;;;;24.90;22.20;;;21.30;99.90;;;;;;5115064;28;20511;-71
2021/07/14 08:47:02;;;;;;;24.83;21.40;;;21.30;99.90;;;;;;5117469;28;20144;-72
2021/07/14 08:49:29;;;;;;;26.67;21.35;;;21.40;99.90;;;;;;5116843;28;20503;-72
2021/07/14 08:51:54;;;;;;;27.77;21.23;;;21.50;99.90;;;;;;5117044;28;20082;-72
2021/07/14 08:54:21;;;;;;;27.88;20.88;;;21.50;99.90;;;;;;5098478;27;20488;-72
2021/07/14 08:56:50;;;;;;;25.55;21.73;;;21.60;99.90;;;;;;5095391;28;20047;-72
2021/07/14 08:59:17;;;;;;;27.15;21.65;;;21.60;99.90;;;;;;5096149;28;20036;-71
2021/07/14 09:01:45;;;;;;;27.08;23.00;;;21.70;99.90;;;;;;5096401;28;20044;-72
2021/07/14 09:04:11;;;;;;;24.48;21.00;;;21.60;99.90;;;;;;5096722;28;20116;-72
2021/07/14 09:06:37;;;;;;;25.38;22.13;;;21.60;99.90;;;;;;5096276;28;20448;-72
2021/07/14 09:09:04;;;;;;;27.48;22.73;;;21.50;99.90;;;;;;5095749;28;20036;-72
2021/07/14 09:11:29;;;;;;;30.17;23.50;;;21.70;99.90;;;;;;5096456;28;20107;-73
2021/07/14 09:13:55;;;;;;;27.13;22.38;;;21.60;99.90;;;;;;5096569;28;20074;-73
2021/07/14 09:16:35;;;;;;;36.25;23.60;;;21.70;99.90;;;;;;5096480;28;20036;-73
2021/07/14 09:19:28;;;;;;;36.33;25.25;;;21.80;99.90;;;;;;5095834;28;20040;-72
2021/07/14 09:22:17;;;;;;;27.35;23.48;;;21.80;99.90;;;;;;5095221;28;20544;-73
2021/07/14 09:24:45;;;;;;;33.63;23.48;;;21.80;99.90;;;;;;5095229;28;20559;-73
2021/07/14 09:27:27;;;;;;;30.08;23.15;;;21.70;99.90;;;;;;5094795;28;20040;-73
2021/07/14 09:30:23;;;;;;;28.75;24.80;;;21.80;99.90;;;;;;5095612;28;20473;-72
2021/07/14 09:33:02;;;;;;;28.10;22.83;;;21.60;99.90;;;;;;5091357;28;20063;-73
2021/07/14 09:35:38;;;;;;;28.00;22.00;;;21.60;99.90;;;;;;5095660;28;20044;-73
2021/07/14 09:38:10;;;;;;;26.25;23.40;;;21.70;99.90;;;;;;5096542;28;20119;-73
2021/07/14 09:40:38;;;;;;;29.05;21.80;;;21.80;99.90;;;;;;5095172;28;20502;-73
2021/07/14 09:43:12;;;;;;;26.02;21.70;;;21.80;99.90;;;;;;5095759;28;20037;-72
2021/07/14 09:45:58;;;;;;;30.08;21.38;;;21.80;99.90;;;;;;5096188;28;20039;-73
2021/07/14 09:48:28;;;;;;;27.83;21.33;;;21.90;99.90;;;;;;5095874;28;20038;-73
2021/07/14 09:51:14;;;;;;;29.48;22.02;;;22.10;99.90;;;;;;5095327;28;20047;-73
2021/07/14 09:53:48;;;;;;;28.55;23.15;;;21.90;99.90;;;;;;5095835;28;20032;-73
2021/07/14 09:56:16;;;;;;;27.02;21.00;;;22.00;99.90;;;;;;5095066;28;20039;-73
2021/07/14 09:58:42;;;;;;;29.10;21.05;;;22.00;99.90;;;;;;5095050;28;20048;-73
2021/07/14 10:01:13;;;;;;;29.00;20.52;;;22.10;99.90;;;;;;5095338;28;20043;-72
2021/07/14 10:03:49;;;;;;;22.73;19.38;;;22.30;99.90;;;;;;5095160;28;20446;-73
2021/07/14 10:06:16;;;;;;;29.13;20.48;;;22.30;99.90;;;;;;5095721;28;20036;-73
2021/07/14 10:08:48;;;;;;;22.95;19.90;;;22.40;99.90;;;;;;5094979;28;20070;-73
2021/07/14 10:11:23;;;;;;;28.70;20.00;;;22.30;99.90;;;;;;5095016;28;20118;-74
2021/07/14 10:13:53;;;;;;;30.75;20.65;;;22.10;99.90;;;;;;5095024;28;20560;-73
2021/07/14 10:16:19;;;;;;;23.48;20.13;;;22.30;99.90;;;;;;5095239;28;20072;-73
2021/07/14 10:19:00;;;;;;;26.90;19.70;;;22.20;99.90;;;;;;5094502;28;20123;-72
2021/07/14 10:21:26;;;;;;;29.38;21.55;;;22.20;99.90;;;;;;5094873;28;20036;-73
2021/07/14 10:23:53;;;;;;;23.25;19.10;;;22.30;99.90;;;;;;5094855;28;20043;-72
2021/07/14 10:26:20;;;;;;;24.60;19.17;;;22.50;99.90;;;;;;5093829;28;20043;-73
2021/07/14 10:28:49;;;;;;;25.00;19.08;;;22.50;99.90;;;;;;5094555;28;20051;-73
2021/07/14 10:31:15;;;;;;;22.35;19.30;;;22.70;99.90;;;;;;5094512;28;20553;-71
2021/07/14 10:33:42;;;;;;;27.70;18.45;;;22.80;99.90;;;;;;5094725;28;20051;-71
2021/07/14 10:36:10;;;;;;;22.95;19.15;;;22.60;99.90;;;;;;5095032;28;20123;-71
2021/07/14 10:38:37;;;;;;;26.65;19.63;;;22.70;99.90;;;;;;5094997;28;20048;-72
2021/07/14 10:41:04;;;;;;;27.13;19.77;;;22.40;99.90;;;;;;5095476;28;20089;-71
2021/07/14 10:43:31;;;;;;;28.02;19.20;;;22.30;99.90;;;;;;5094755;28;20074;-71
2021/07/14 10:45:57;;;;;;;24.15;19.15;;;22.40;99.90;;;;;;5094903;28;20067;-71
2021/07/14 10:48:24;;;;;;;26.00;19.30;;;22.40;99.90;;;;;;5094758;28;20070;-71
2021/07/14 10:50:52;;;;;;;26.88;19.83;;;22.60;99.90;;;;;;5094499;28;20040;-70
2021/07/14 10:53:18;;;;;;;24.20;18.90;;;22.80;99.90;;;;;;5094437;28;20056;-70
2021/07/14 10:55:46;;;;;;;24.02;18.65;;;23.00;99.90;;;;;;5094251;28;20484;-71
2021/07/14 10:58:17;;;;;;;29.60;19.83;;;22.90;99.90;;;;;;5094418;28;20090;-71
2021/07/14 11:00:44;;;;;;;29.55;19.58;;;23.00;99.90;;;;;;5093723;28;20115;-71
2021/07/14 11:03:40;;;;;;;23.40;18.48;;;22.60;99.90;;;;;;5094424;28;20040;-70
2021/07/14 11:06:09;;;;;;;26.20;19.23;;;22.90;99.90;;;;;;5094088;28;20036;-71
2021/07/14 11:08:49;;;;;;;26.92;18.60;;;22.80;99.90;;;;;;5093723;28;20044;-71
2021/07/14 11:11:22;;;;;;;25.48;19.25;;;22.70;99.90;;;;;;5094218;28;20078;-71
2021/07/14 11:14:02;;;;;;;28.10;20.42;;;22.70;99.90;;;;;;5093762;28;20044;-70
2021/07/14 11:16:33;;;;;;;22.83;18.65;;;22.70;99.90;;;;;;5094041;28;20044;-70
2021/07/14 11:19:04;;;;;;;26.05;18.13;;;22.80;99.90;;;;;;5093440;28;20377;-71
2021/07/14 11:21:54;;;;;;;25.88;18.77;;;22.80;99.90;;;;;;5093597;28;20116;-70
2021/07/14 11:24:46;;;;;;;23.95;20.02;;;22.90;99.90;;;;;;5093785;28;20044;-70
2021/07/14 11:27:26;;;;;;;25.27;18.98;;;22.70;99.90;;;;;;5093808;28;20036;-70
2021/07/14 11:30:02;;;;;;;23.42;18.10;;;22.80;99.90;;;;;;5093269;28;20055;-71
2021/07/14 11:32:34;;;;;;;23.40;17.65;;;22.90;99.90;;;;;;5093921;28;20040;-71
2021/07/14 11:35:17;;;;;;;24.67;17.90;;;22.90;99.90;;;;;;5092619;28;20090;-70
2021/07/14 11:37:44;;;;;;;25.15;18.60;;;22.90;99.90;;;;;;5093995;28;20284;-70
2021/07/14 11:40:21;;;;;;;27.00;18.35;;;22.80;99.90;;;;;;5093058;28;20434;-71
2021/07/14 11:42:54;;;;;;;27.92;18.33;;;22.60;99.90;;;;;;5093624;28;20109;-70
2021/07/14 11:45:26;;;;;;;20.90;16.48;;;22.60;99.90;;;;;;5093454;28;20451;-70
2021/07/14 11:48:12;;;;;;;22.67;16.63;;;22.60;99.90;;;;;;5093493;28;20062;-70
2021/07/14 11:50:46;;;;;;;23.70;16.77;;;22.80;99.90;;;;;;5093079;28;20051;-71
2021/07/14 11:56:17;;;;;;;19.52;14.65;;;22.90;99.90;;;;;;5093382;28;20065;-71
2021/07/14 11:58:46;;;;;;;23.75;15.57;;;22.90;99.90;;;;;;5092901;28;20062;-71
2021/07/14 12:01:17;;;;;;;22.63;14.38;;;22.80;99.90;;;;;;5093166;28;20107;-71
2021/07/14 12:04:01;;;;;;;29.63;17.33;;;22.90;99.90;;;;;;5093269;28;20384;-71
2021/07/14 12:06:45;;;;;;;23.52;16.30;;;22.80;99.90;;;;;;5093236;28;20115;-71
2021/07/14 12:09:14;;;;;;;24.85;16.08;;;22.60;99.90;;;;;;5092924;28;20044;-71
2021/07/14 12:11:42;;;;;;;21.58;15.43;;;22.80;99.90;;;;;;5093002;28;20036;-72
2021/07/14 12:14:12;;;;;;;22.13;16.02;;;22.90;99.90;;;;;;5093302;28;20040;-71
2021/07/14 12:16:38;;;;;;;21.67;15.02;;;22.80;99.90;;;;;;5093340;28;20040;-71
2021/07/14 12:19:03;;;;;;;20.58;15.70;;;22.80;99.90;;;;;;5093927;28;20544;-71
2021/07/14 12:21:48;;;;;;;26.27;15.75;;;22.80;99.90;;;;;;5097248;28;20400;-71
2021/07/14 12:24:36;;;;;;;18.15;14.88;;;22.80;99.90;;;;;;5097133;28;20044;-71
2021/07/14 12:27:23;;;;;;;21.23;15.02;;;22.80;99.90;;;;;;5097249;28;20110;-71
2021/07/14 12:29:55;;;;;;;18.55;14.40;;;23.00;99.90;;;;;;5096822;28;20115;-71
2021/07/14 12:32:35;;;;;;;21.25;15.10;;;23.00;99.90;;;;;;5095932;28;20044;-71
2021/07/14 12:35:07;;;;;;;20.60;16.90;;;23.10;99.90;;;;;;5097075;28;20040;-71
2021/07/14 12:37:35;;;;;;;19.65;15.40;;;23.00;99.90;;;;;;5097197;28;20036;-71
2021/07/14 12:40:02;;;;;;;23.08;16.30;;;23.00;99.90;;;;;;5096425;28;20539;-71
2021/07/14 12:42:27;;;;;;;17.55;15.43;;;23.10;99.90;;;;;;5096668;28;20507;-71
2021/07/14 12:44:53;;;;;;;19.23;15.13;;;23.20;99.90;;;;;;5096837;28;20031;-71
2021/07/14 12:47:21;;;;;;;22.17;16.17;;;23.30;99.90;;;;;;5096994;28;20036;-72